Terminal Aerodrome Forecast
Issued by NWS St Louis, MO

Home | Current Version | Previous Version | Text Only | Print | Product List | Glossary On
Versions: 1 2 3 4 5 6 7 8 9 10 11 12 13 14 15 16 17 18 19 20 21 22 23 24 25 26 27 28 29 30 31 32
000
FTUS43 KLSX 251300 AAA
TAFSTL
TAF AMD
KSTL 251301Z 2513/2618 14010KT 4SM BR BKN008 OVC012
     FM251500 15010KT P6SM OVC020
     FM251900 15007KT P6SM VCTS BKN020CB
     FM252100 04009KT 5SM -RA BR OVC012
     FM260600 01012KT P6SM OVC012
     FM261500 05010KT P6SM BKN035=

USA.gov is the U.S. government's official web portal to all federal, state and local government web resources and services.